• Join FlightAware (Why Join?)
  • Login
  • US Flag 
07:45AM EDT


 

Airport Tracker/Info


-or-


 

Live Flight TrackerFlight Track Log ✈ FAO882 ✈ 24-Mar-2014 ✈ KPIE - KGRR

Flight Track Log - Related Links

Times and Time Zones

All times are in EDT time to prevent confusion due to time zone crossing. See the FAO882 flight status page for this flight to view local times or setup timezone preferences in your user account.

Time Position Orientation Groundspeed Altitude Reporting Facility
EDT Latitude Longitude Course Direction KTS MPH feet Rate Location/Type
03:10PM 27.8833 -82.6833 180° South 172 198 900  Level Tampa TRACON
03:10PM 27.8500 -82.6833 180° South 204 235 2,000 1,020 Climbing Tampa TRACON
03:11PM 27.7833 -82.7000 192° South 224 258 2,900 420 Climbing Tampa TRACON
03:12PM 27.7833 -82.7833 270° West 266 306 3,000 1,260 Climbing Tampa TRACON
03:13PM 27.8000 -82.8500 286° West 265 305 5,300 2,640 Climbing Tampa TRACON
03:15PM 27.8667 -82.9000 326° Northwest 263 303 8,600 2,040 Climbing Tampa TRACON
03:16PM 27.9956 -82.9092 356° North 263 303 11,200 1,680 Climbing Jacksonville Center
03:17PM 28.0872 -82.8692 21° North 311 358 13,000 1,920 Climbing Jacksonville Center
03:18PM 28.1792 -82.8289 21° North 330 380 15,100 1,920 Climbing Jacksonville Center
03:19PM 28.2792 -82.7864 21° North 348 400 16,900 1,680 Climbing Jacksonville Center
03:20PM 28.3856 -82.7744 North 357 411 18,500 1,560 Climbing Jacksonville Center
03:21PM 28.4922 -82.7675 North 370 426 20,100 1,500 Climbing Jacksonville Center
03:22PM 28.6006 -82.7578 North 376 433 21,600 1,500 Climbing Jacksonville Center
03:23PM 28.6986 -82.7458 North 387 445 23,100 1,380 Climbing Jacksonville Center
03:24PM 28.8114 -82.7339 North 392 451 24,400 1,200 Climbing Jacksonville Center
03:25PM 28.9242 -82.7217 North 398 458 25,500 1,200 Climbing Jacksonville Center
03:26PM 29.0389 -82.7097 North 403 464 26,800 960 Climbing Jacksonville Center
03:27PM 29.1558 -82.6975 North 408 470 27,500 780 Climbing Jacksonville Center
03:28PM 29.2789 -82.6856 North 420 483 28,400 840 Climbing Jacksonville Center
03:29PM 29.4019 -82.6708 North 434 499 29,200 780 Climbing Jacksonville Center
03:30PM 29.5419 -82.6611 North 445 512 30,000 360 Climbing Jacksonville Center
03:31PM 29.6628 -82.6464 North 445 512 30,000 180 Level Jacksonville Center
03:32PM 29.7861 -82.6269 North 440 506 30,400 420 Climbing Jacksonville Center
03:33PM 29.9092 -82.6147 North 440 506 30,900 240 Climbing Jacksonville Center
03:34PM 30.0303 -82.6072 North 440 506 30,900  Level Jacksonville Center
03:35PM 30.1533 -82.5922 North 440 506 31,000  Climbing Jacksonville Center
03:36PM 30.2786 -82.5800 North 440 506 31,000  Level Jacksonville Center
03:37PM 30.3997 -82.5675 North 440 506 31,000  Level Jacksonville Center
03:38PM 30.5250 -82.5525 North 440 506 31,000 -60 Level Jacksonville Center
03:39PM 30.6439 -82.5472 North 440 506 30,900  Descending Jacksonville Center
03:40PM 30.7631 -82.5444 North 440 506 31,000  Climbing Jacksonville Center
03:41PM 30.8861 -82.5392 North 434 499 31,000  Level Jacksonville Center
03:42PM 31.0053 -82.5339 North 434 499 31,000  Level Jacksonville Center
03:43PM 31.1261 -82.5236 North 429 494 31,000  Level Jacksonville Center
03:44PM 31.2411 -82.5256 359° North 423 487 31,000  Level Jacksonville Center
03:45PM 31.3372 -82.5206 North 423 487 31,000  Level Jacksonville Center
03:47PM 31.5783 -82.5008 North 414 476 31,000  Level Atlanta Center
03:48PM 31.6972 -82.4864 North 420 483 31,000  Level Atlanta Center
03:49PM 31.8139 -82.4650 North 426 490 31,000  Level Atlanta Center
03:50PM 31.9367 -82.4481 North 426 490 31,000  Level Atlanta Center
03:51PM 32.0553 -82.4289 North 426 490 31,000  Level Atlanta Center
03:52PM 32.1783 -82.4119 North 426 490 31,000  Level Atlanta Center
03:53PM 32.2803 -82.3881 11° North 420 483 31,000  Level Atlanta Center
03:54PM 32.3992 -82.3733 North 420 483 31,000  Level Atlanta Center
03:55PM 32.5200 -82.3539 North 426 490 31,000  Level Atlanta Center
03:56PM 32.6406 -82.3344 North 426 490 31,000  Level Atlanta Center
03:57PM 32.7614 -82.3147 North 426 490 31,000  Level Atlanta Center
03:58PM 32.8844 -82.2950 North 432 497 31,000  Level Atlanta Center
03:59PM 33.0031 -82.2753 North 432 497 31,000  Level Atlanta Center
04:00PM 33.1281 -82.2578 North 432 497 31,000  Level Atlanta Center
04:01PM 33.2467 -82.2381 North 438 504 31,000  Level Atlanta Center
04:02PM 33.3819 -82.2153 North 444 511 31,000  Level Atlanta Center
04:03PM 33.5008 -82.1953 North 444 511 31,000  Level Atlanta Center
04:04PM 33.6214 -82.1753 North 444 511 31,000  Level Atlanta Center
04:05PM 33.7464 -82.1525 North 444 511 31,000  Level Atlanta Center
04:06PM 33.8672 -82.1325 North 444 511 31,000  Level Atlanta Center
04:07PM 33.9878 -82.1122 North 444 511 31,000  Level Atlanta Center
04:08PM 34.1086 -82.0919 North 444 511 31,000  Level Atlanta Center
04:09PM 34.2189 -82.0717 North 444 511 31,000  Level Atlanta Center
04:10PM 34.3375 -82.0514 North 439 505 31,000  Level Atlanta Center
04:11PM 34.4603 -82.0308 North 439 505 31,000  Level Atlanta Center
04:12PM 34.5789 -82.0103 North 439 505 31,000  Level Atlanta Center
04:13PM 34.6975 -81.9872 North 444 511 31,000  Level Atlanta Center
04:14PM 34.8161 -81.9692 North 439 505 31,000  Level Atlanta Center
04:15PM 34.9411 -81.9508 North 439 505 31,000  Level Atlanta Center
04:16PM 35.0556 -81.9378 North 434 499 31,000  Level Atlanta Center
04:17PM 35.1706 -81.9450 357° North 419 482 31,000  Level Atlanta Center
04:18PM 35.2814 -81.9628 353° North 407 468 31,000  Level Atlanta Center
04:19PM 35.3942 -81.9778 354° North 407 468 31,000  Level Atlanta Center
04:20PM 35.5072 -81.9903 355° North 407 468 31,000  Level Atlanta Center
04:21PM 35.6200 -82.0028 355° North 407 468 31,000  Level Atlanta Center
04:22PM 35.7350 -82.0178 354° North 407 468 31,000  Level Atlanta Center
04:23PM 35.8542 -82.0300 355° North 412 474 31,000  Level Atlanta Center
04:24PM 35.9628 -82.0428 355° North 407 468 31,000  Level Atlanta Center
04:25PM 36.0756 -82.0581 354° North 407 468 31,000  Level Atlanta Center
04:26PM 36.1886 -82.0706 355° North 407 468 31,000  Level Atlanta Center
04:27PM 36.2972 -82.0808 356° North 402 463 31,000  Level Atlanta Center
04:28PM 36.4100 -82.0961 354° North 402 463 31,000  Level Atlanta Center
04:30PM 36.5936 -82.1189 354° North 406 467 31,000  Level Indianapolis Center
04:31PM 36.7044 -82.1325 354° North 405 466 31,000  Level Indianapolis Center
04:32PM 36.8156 -82.1475 354° North 405 466 31,000  Level Indianapolis Center
04:33PM 36.9444 -82.1628 355° North 404 465 31,000  Level Indianapolis Center
04:34PM 37.0550 -82.1778 354° North 403 464 31,100  Climbing Indianapolis Center
04:35PM 37.1656 -82.1911 355° North 403 464 31,000 -60 Descending Indianapolis Center
04:36PM 37.2750 -82.2058 354° North 400 460 31,000  Level Indianapolis Center
04:37PM 37.3850 -82.2206 354° North 400 460 31,000  Level Indianapolis Center
04:38PM 37.5133 -82.2364 354° North 400 460 31,000  Level Indianapolis Center
04:39PM 37.6231 -82.2500 354° North 399 459 31,000  Level Indianapolis Center
04:40PM 37.7328 -82.2656 354° North 399 459 31,000  Level Indianapolis Center
04:41PM 37.8428 -82.2792 354° North 399 459 31,000  Level Indianapolis Center
04:42PM 37.9525 -82.2928 354° North 399 459 31,000  Level Indianapolis Center
04:43PM 38.0814 -82.3103 354° North 398 458 31,000  Level Indianapolis Center
04:44PM 38.1956 -82.3250 354° North 398 458 31,000  Level Indianapolis Center
04:45PM 38.3078 -82.3386 355° North 398 458 31,000  Level Indianapolis Center
04:46PM 38.4172 -82.3550 353° North 398 458 31,000  Level Indianapolis Center
04:47PM 38.5283 -82.3683 355° North 398 458 31,000  Level Indianapolis Center
04:48PM 38.6386 -82.3828 354° North 398 458 31,000  Level Indianapolis Center
04:49PM 38.7494 -82.3975 354° North 398 458 31,000  Level Indianapolis Center
04:50PM 38.8589 -82.4125 354° North 397 457 31,000  Level Indianapolis Center
04:51PM 38.9669 -82.4261 354° North 391 450 31,000  Level Indianapolis Center
04:52PM 39.0942 -82.4447 354° North 384 442 31,000 -60 Level Indianapolis Center
04:53PM 39.1944 -82.4764 346° North 378 435 30,900 -420 Descending Indianapolis Center
04:54PM 39.2994 -82.5117 345° North 369 425 30,200 -480 Descending Indianapolis Center
04:55PM 39.3992 -82.5442 346° North 369 425 30,000 -120 Descending Indianapolis Center
04:56PM 39.4967 -82.5772 345° North 369 425 30,000  Level Indianapolis Center
04:58PM 39.5950 -82.6092 346° North 368 423 30,000  Level Indianapolis Center
04:59PM 39.6928 -82.6422 345° North 367 422 30,000  Level Indianapolis Center
05:00PM 39.8125 -82.6819 346° North 367 422 30,000  Level Indianapolis Center
05:01PM 39.9122 -82.7153 346° North 368 423 30,000  Level Indianapolis Center
05:02PM 40.0131 -82.7489 346° North 370 426 30,000  Level Indianapolis Center
05:03PM 40.1147 -82.7836 345° North 374 430 30,000  Level Indianapolis Center
05:04PM 40.2158 -82.8186 345° North 375 432 30,000  Level Indianapolis Center
05:05PM 40.3372 -82.8594 346° North 377 434 30,000  Level Indianapolis Center
05:06PM 40.4364 -82.8931 346° North 376 433 30,000 -300 Level Indianapolis Center
05:07PM 40.5361 -82.9272 345° North 375 432 29,500 -540 Descending Indianapolis Center
05:08PM 40.6317 -82.9592 346° North 363 418 29,000 -300 Descending Indianapolis Center
05:09PM 40.7297 -82.9931 345° North 363 418 29,000  Level Indianapolis Center
05:10PM 40.8272 -83.0283 345° North 364 419 29,000  Level Indianapolis Center
05:11PM 40.9447 -83.0678 346° North 364 419 29,000  Level Indianapolis Center
05:12PM 41.0439 -83.1017 346° North 365 420 29,000  Level Indianapolis Center
05:13PM 41.1414 -83.1364 345° North 365 420 29,000  Level Indianapolis Center
05:14PM 41.2394 -83.1700 346° North 365 420 29,000  Level Indianapolis Center
05:15PM 41.3372 -83.2056 345° North 365 420 29,000  Level Indianapolis Center
05:16PM 41.4375 -83.2406 345° North 369 425 29,000 -780 Level Indianapolis Center
05:17PM 41.5569 -83.2833 345° North 369 425 27,500 -1,560 Descending Indianapolis Center
05:18PM 41.6333 -83.3536 325° Northwest 339 390 25,800 -1,680 Descending Indianapolis Center
05:19PM 41.6861 -83.4433 308° West 312 359 24,100 -1,680 Descending Indianapolis Center
05:20PM 41.7386 -83.5328 308° West 311 358 22,400 -1,020 Descending Indianapolis Center
05:21PM 41.7886 -83.6175 308° West 299 344 22,000 -240 Descending Indianapolis Center
05:22PM 41.8386 -83.7022 308° West 294 338 22,000  Level Indianapolis Center
05:24PM 41.9061 -83.8147 309° West 284 327 22,000  Level Cleveland Center
05:25PM 41.9642 -83.9153 308° West 283 326 22,000  Level Cleveland Center
05:26PM 42.0125 -83.9989 308° West 283 326 22,000 -540 Level Cleveland Center
05:27PM 42.0617 -84.0822 308° West 283 326 20,900 -1,500 Descending Cleveland Center
05:28PM 42.1131 -84.1711 308° West 294 338 18,900 -1,560 Descending Cleveland Center
05:29PM 42.1669 -84.2639 308° West 308 354 17,700 -1,500 Descending Cleveland Center
05:30PM 42.2178 -84.3511 308° West 302 348 15,900 -2,040 Descending Cleveland Center
05:31PM 42.2761 -84.4528 308° West 289 333 13,500 -2,220 Descending Cleveland Center
05:32PM 42.3239 -84.5361 308° West 285 328 11,400 -1,740 Descending Cleveland Center
05:33PM 42.3711 -84.6183 308° West 279 321 10,000 -720 Descending Cleveland Center
05:34PM 42.4161 -84.6981 307° West 255 293 10,000 -540 Level Cleveland Center
05:35PM 42.4586 -84.7683 309° West 245 282 9,000 -1,020 Descending Cleveland Center
05:36PM 42.5031 -84.8347 312° West 240 276 8,000 -480 Descending Cleveland Center
05:37PM 42.5478 -84.8983 314° West 237 273 8,000  Level Cleveland Center
05:38PM 42.5939 -84.9608 315° West 237 273 8,000 -660 Level Cleveland Center
05:39PM 42.6528 -85.0347 317° Northwest 237 273 6,700 -1,380 Descending Cleveland Center
05:40PM 42.6967 -85.0956 314° West 231 266 5,200 -1,320 Descending Cleveland Center
05:41PM 42.7456 -85.1561 318° Northwest 232 267 4,000 -840 Descending Cleveland Center
05:42PM 42.7886 -85.2111 317° Northwest 221 254 3,500 -780 Descending Cleveland Center
05:43PM 42.8289 -85.2600 318° Northwest 205 236 2,500 -480 Descending Cleveland Center
05:45PM 42.8775 -85.3181 319° Northwest 199 229 2,500  Level Chicago Center
05:46PM 42.9036 -85.3647 307° West 187 215 2,500 -300 Level Chicago Center
05:47PM 42.8886 -85.4319 253° West 164 189 1,900 -660 Descending Chicago Center
05:48PM 42.8825 -85.4814 260° West 145 167 1,200 -540 Descending Chicago Center
05:49PM 42.8769 -85.5283 261° West 141 162 900 -300 Descending Chicago Center